Record high temperature 44.9°C Record low temperature -0.3°C Record high gust 87.3 km/h Record high average 77.7 km/h Record daily rain 484.8 mm Record low windchill -5.8°C Record high barometer 1043.6 hPa Record low barometer 978.0 hPa
Daily high pressure 1018.3 mb Daily low pressure 1014.7 mb Daily low windchill 15.7°C Daily high heat index 22.7°C Daily high gust speed 50.0 kmh ENE Daily high average speed 27.4 kmh NE
Estación de MeteoMurcia.com -------- Murcia-Puente Tocinos
Ultima grabación a: 23:20 Data: 20 October 2018, time of next update: 23:30
Tiempo actualClear/Night Temperatura actual21.6°C (70.9°F) (Indice de Calor21.6°C ), Temperatura aparente 20.8°C
Temperatura máxima (desde medianoche)22.7°C at: 16:13 Temperatura mínima (desde medianoche)15.7°C at: 07:47
Velocidad media del viento (diez minutos)16.7 kmh (9.0 kts) Dirección del viento (diez minutos)NE (45°)
Indice de Calor21.6°C ráfagas maxima (última hora)35.2 kmh (19.0 kts) at: 22:49
ráfagas maxima (desde medianoche)50.0 kmh (27.0 kts) at: 16:06 Maximo media de un minuto (desde medianoche)27.4 kmh (14.8 kts) at: 16:16
Lluvia (última hora)0.0 mm Lluvia (desde medianoche)3.3 mm (0.13 in.) at 16:07
Lluvia Este mes 35.6 mm (1.40 in.) Lluvia Hasta la fecha este año210.8 mm (8.30 in.)
Lluvia máxima por minuto (última hora)0.0 mm/min Lluvia maxima por hora (últimas 6 horas)0.0 mm/hora
Lluvia de ayer 0.0 mm Punto de rocío 18.2°C (Wet Bulb :19.5°C )
Humedad 81 %, Humidex 27.8°C Barómetro corregido a msl1017.4 mb
cambio de presión+0.3 mb (última hora) Tendencia (últimas 1 hora)ESTACIONARIO
cambio de presión (últimas 12 horas)-0.4 mb cambio de presión (últimas 6 horas)+1.7 mb
Current Temp. Interna 26.5°C
Current Hum. Interna 59%


Última imagen cámara web


Weather report/warning/Metars

Alicante / El Altet, Spain (LEAL) 38-17N 000-33W 31M
Oct 20, 2018 - 05:00 PM EDT / 2018.10.20 2100 UTC
Wind: from the ENE (070 degrees) at 16 MPH (14 KT):0
Visibility: greater than 7 mile(s):0
Temperature: 73 F (23 C)
Dew Point: 64 F (18 C)
Relative Humidity: 73%
Pressure (altimeter): 30.12 in. Hg (1020 hPa)
ob: LEAL 202100Z 07014KT CAVOK 23/18 Q1020 NOSIG
cycle: 21
Murcia / San Javier, Spain (LELC) 37-47N 000-48W 3M
Oct 20, 2018 - 05:00 PM EDT / 2018.10.20 2100 UTC
Wind: from the NE (050 degrees) at 22 MPH (19 KT) (direction variable):0
Visibility: greater than 7 mile(s):0
Sky conditions: overcast
Temperature: 71 F (22 C)
Dew Point: 66 F (19 C)
Relative Humidity: 83%
Pressure (altimeter): 30.06 in. Hg (1018 hPa)
ob: LELC 202100Z 05019KT 030V090 9999 BKN019 OVC025 22/19 Q1018 NOSIG
cycle: 21
Murcia / Alcantarilla, Spain (LERI) 37-57N 001-14W 75M
Oct 20, 2018 - 02:00 PM EDT / 2018.10.20 1800 UTC
Wind: from the ENE (070 degrees) at 14 MPH (12 KT) (direction variable):0
Visibility: greater than 7 mile(s):0
Sky conditions: partly cloudy
Temperature: 69 F (21 C)
Dew Point: 64 F (18 C)
Relative Humidity: 82%
Pressure (altimeter): 30.06 in. Hg (1018 hPa)
ob: LERI 201800Z 07012KT 040V110 9999 SCT020 SCT040 21/18 Q1018 NOSIG
cycle: 18
Gerona / Costa Brava, Spain (LEGE) 41-54N 002-46E 129M
Oct 20, 2018 - 05:00 PM EDT / 2018.10.20 2100 UTC
Wind: from the NE (050 degrees) at 2 MPH (2 KT):0
Visibility: greater than 7 mile(s):0
Sky conditions: mostly clear
Temperature: 59 F (15 C)
Dew Point: 59 F (15 C)
Relative Humidity: 100%
Pressure (altimeter): 30.21 in. Hg (1023 hPa)
ob: LEGE 202100Z 05002KT 9999 FEW025 15/15 Q1023
cycle: 21
Madri-Colmenar, Spain (LECV) 40-39N 003-44W
Oct 20, 2018 - 02:00 PM EDT / 2018.10.20 1800 UTC
Wind: from the E (100 degrees) at 10 MPH (9 KT):0
Visibility: less than 1 mile:0
Sky conditions: mostly cloudy
Weather: rain with thunder; Cumulonimbus clouds observed
Temperature: 57 F (14 C)
Dew Point: 57 F (14 C)
Relative Humidity: 100%
Pressure (altimeter): 30.18 in. Hg (1022 hPa)
ob: LECV 201800Z 10009KT 1500 TSRA SCT020CB BKN040 14/14 Q1022
cycle: 18
Asturias / Aviles, Spain (LEAS) 43-33N 006-02W 130M
Oct 20, 2018 - 05:00 PM EDT / 2018.10.20 2100 UTC
Wind: from the E (090 degrees) at 7 MPH (6 KT) (direction variable):0
Visibility: 1 mile(s):0
Sky conditions: mostly cloudy
Weather: mist
Temperature: 60 F (16 C)
Dew Point: 59 F (15 C)
Relative Humidity: 93%
Pressure (altimeter): 30.24 in. Hg (1024 hPa)
ob: LEAS 202100Z 09006KT 060V140 3000 BR SCT010 BKN020 16/15 Q1024 TEMPO BKN010
cycle: 21
Almeria / Aeropuerto, Spain (LEAM) 36-51N 002-23W 21M
Oct 20, 2018 - 05:00 PM EDT / 2018.10.20 2100 UTC
Wind: from the NNE (030 degrees) at 14 MPH (12 KT) (direction variable):0
Visibility: greater than 7 mile(s):0
Temperature: 73 F (23 C)
Dew Point: 60 F (16 C)
Relative Humidity: 64%
Pressure (altimeter): 30.00 in. Hg (1016 hPa)
ob: LEAM 202100Z AUTO 03012KT 350V070 9999 NCD 23/16 Q1016
cycle: 21
Pamplona / Noain, Spain (LEPP) 42-46N 001-38W 453M
Oct 20, 2018 - 05:00 PM EDT / 2018.10.20 2100 UTC
Wind: from the WNW (290 degrees) at 3 MPH (3 KT):0
Visibility: 5 mile(s):0
Temperature: 57 F (14 C)
Dew Point: 51 F (11 C)
Relative Humidity: 82%
Pressure (altimeter): 30.27 in. Hg (1025 hPa)
ob: LEPP 202100Z 29003KT 9000 NSC 14/11 Q1025
cycle: 21
Badajoz / Talavera La Real, Spain (LEBZ) 38-53N 006-49W 192M
Oct 20, 2018 - 05:00 PM EDT / 2018.10.20 2100 UTC
Wind: from the ENE (060 degrees) at 7 MPH (6 KT):0
Visibility: 4 mile(s):0
Sky conditions: mostly clear
Weather: light rain
Temperature: 60 F (16 C)
Dew Point: 59 F (15 C)
Relative Humidity: 93%
Pressure (altimeter): 30.03 in. Hg (1017 hPa)
ob: LEBZ 202100Z 06006KT 8000 -RA FEW040 16/15 Q1017
cycle: 21
Albacete / Los Llanos, Spain (LEAB) 38-57N 001-51W 704M
Oct 20, 2018 - 05:00 PM EDT / 2018.10.20 2100 UTC
Wind: from the E (090 degrees) at 7 MPH (6 KT) (direction variable):0
Visibility: greater than 7 mile(s):0
Sky conditions: mostly clear
Temperature: 60 F (16 C)
Dew Point: 55 F (13 C)
Relative Humidity: 82%
Pressure (altimeter): 30.18 in. Hg (1022 hPa)
ob: LEAB 202100Z 09006KT 050V110 9999 FEW025 16/13 Q1022 NOSIG
cycle: 21



La informacion se graba a intervalos de 2 minutos, pero hay info grabada cada minuto. Optimizado para 800*600 y Color verdadero. Use el boton de

Use the RECARGA en su navegador para recojer la ulima info.

Clicar aquí para regarga diaria de medias/extremas del mes














Created by "Weather Display" software version 10.37S at this start time/date 11:18:08 04/09/2018

La estación de MeteoMurcia.com, publica sus datos en los siguientes proyectos:

Meteoclimatic www.awekas.at

W3Counter
Web Analytics